Time,TemperatureF,DewpointF,PressureIn,WindDirection,WindDirectionDegrees,WindSpeedMPH,WindSpeedGustMPH,Humidity,HourlyPrecipIn,Conditions,Clouds,dailyrainin,SoftwareType,DateUTC
2013-02-27 00:00:00,33.3,31.6,29.59,WNW,292,0.0,0.0,94,0.00,,,0.00,WUHU21636XXSP,2013-02-27 06:00:00,
2013-02-27 00:05:00,33.4,31.8,29.59,WNW,292,0.0,0.0,94,0.00,,,0.00,WUHU21636XXSP,2013-02-27 06:05:00,
2013-02-27 00:10:00,33.3,31.6,29.59,NW,315,0.0,0.0,94,0.00,,,0.00,WUHU21636XXSP,2013-02-27 06:10:00,
2013-02-27 00:15:00,33.3,31.6,29.60,WNW,292,0.0,0.0,94,0.00,,,0.00,WUHU21636XXSP,2013-02-27 06:15:00,
2013-02-27 00:20:00,33.3,31.6,29.60,WNW,292,0.0,0.0,94,0.00,,,0.00,WUHU21636XXSP,2013-02-27 06:20:00,
2013-02-27 00:25:00,33.1,31.5,29.60,West,270,0.0,0.0,94,0.00,,,0.00,WUHU21636XXSP,2013-02-27 06:25:00,
2013-02-27 00:30:00,33.1,31.5,29.60,WNW,292,0.0,0.0,95,0.00,,,0.00,WUHU21636XXSP,2013-02-27 06:30:00,
2013-02-27 00:35:00,33.1,31.5,29.60,WNW,292,0.0,0.0,95,0.00,,,0.00,WUHU21636XXSP,2013-02-27 06:35:00,
2013-02-27 00:40:00,33.1,31.5,29.61,WNW,292,0.0,0.0,95,0.00,,,0.00,WUHU21636XXSP,2013-02-27 06:40:00,
2013-02-27 00:45:00,33.1,31.5,29.61,West,270,0.0,0.0,95,0.00,,,0.00,WUHU21636XXSP,2013-02-27 06:45:00,
2013-02-27 00:50:00,33.1,31.5,29.61,WNW,292,0.0,0.0,94,0.00,,,0.00,WUHU21636XXSP,2013-02-27 06:50:00,
2013-02-27 00:55:00,33.1,31.5,29.61,NW,315,0.0,0.0,94,0.00,,,0.00,WUHU21636XXSP,2013-02-27 06:55:00,
2013-02-27 01:00:00,33.1,31.5,29.61,WNW,292,0.0,0.0,94,0.00,,,0.00,WUHU21636XXSP,2013-02-27 07:00:00,
2013-02-27 01:05:00,32.9,31.3,29.62,WNW,292,0.0,0.0,94,0.00,,,0.00,WUHU21636XXSP,2013-02-27 07:05:00,
2013-02-27 01:10:00,32.9,31.3,29.62,WNW,292,0.0,0.0,94,0.00,,,0.00,WUHU21636XXSP,2013-02-27 07:10:00,
2013-02-27 01:15:00,32.9,31.3,29.62,WNW,292,0.0,0.0,94,0.00,,,0.00,WUHU21636XXSP,2013-02-27 07:15:00,
2013-02-27 01:20:00,32.9,31.3,29.62,NW,315,0.0,0.0,94,0.00,,,0.00,WUHU21636XXSP,2013-02-27 07:20:00,
2013-02-27 01:25:00,32.9,31.3,29.62,West,270,0.0,0.0,94,0.00,,,0.00,WUHU21636XXSP,2013-02-27 07:25:00,
2013-02-27 01:30:00,32.9,31.3,29.62,WNW,292,0.0,0.0,94,0.00,,,0.00,WUHU21636XXSP,2013-02-27 07:30:00,
2013-02-27 01:35:00,32.9,31.3,29.63,WNW,292,0.0,0.0,94,0.00,,,0.00,WUHU21636XXSP,2013-02-27 07:35:00,
2013-02-27 01:40:00,32.9,31.3,29.63,WNW,292,0.0,0.0,94,0.00,,,0.00,WUHU21636XXSP,2013-02-27 07:40:00,
2013-02-27 01:45:00,32.9,31.3,29.63,WNW,292,0.0,0.0,94,0.00,,,0.00,WUHU21636XXSP,2013-02-27 07:45:00,
2013-02-27 01:50:00,32.9,31.3,29.63,WNW,292,0.0,0.0,94,0.00,,,0.00,WUHU21636XXSP,2013-02-27 07:50:00,
2013-02-27 01:55:00,32.9,31.3,29.63,WNW,292,0.0,0.0,94,0.00,,,0.00,WUHU21636XXSP,2013-02-27 07:55:00,
2013-02-27 02:00:00,32.9,31.3,29.63,WNW,292,0.0,0.0,94,0.00,,,0.00,WUHU21636XXSP,2013-02-27 08:00:00,
2013-02-27 02:05:00,32.9,31.3,29.63,WNW,292,0.0,0.0,94,0.00,,,0.00,WUHU21636XXSP,2013-02-27 08:05:00,
2013-02-27 02:10:00,32.9,31.3,29.63,WNW,292,0.0,0.0,94,0.00,,,0.00,WUHU21636XXSP,2013-02-27 08:10:00,
2013-02-27 02:15:00,32.7,31.1,29.63,WNW,292,0.0,0.0,94,0.00,,,0.00,WUHU21636XXSP,2013-02-27 08:15:00,
2013-02-27 02:20:00,32.9,31.3,29.63,WNW,292,0.0,0.0,94,0.00,,,0.00,WUHU21636XXSP,2013-02-27 08:20:00,
2013-02-27 02:25:00,32.7,31.1,29.62,WNW,292,0.0,0.0,94,0.00,,,0.00,WUHU21636XXSP,2013-02-27 08:25:00,
2013-02-27 02:30:00,32.7,31.1,29.62,WNW,292,0.0,0.0,94,0.00,,,0.00,WUHU21636XXSP,2013-02-27 08:30:00,
2013-02-27 02:35:00,32.7,31.1,29.62,WNW,292,0.0,0.0,94,0.00,,,0.00,WUHU21636XXSP,2013-02-27 08:35:00,
2013-02-27 02:40:00,32.7,31.1,29.62,WNW,292,0.0,0.0,94,0.00,,,0.00,WUHU21636XXSP,2013-02-27 08:40:00,
2013-02-27 02:45:00,32.7,31.1,29.62,WNW,292,0.0,0.0,94,0.00,,,0.00,WUHU21636XXSP,2013-02-27 08:45:00,
2013-02-27 02:50:00,32.7,31.1,29.62,WNW,292,0.0,0.0,94,0.00,,,0.00,WUHU21636XXSP,2013-02-27 08:50:00,
2013-02-27 02:55:00,32.7,31.1,29.62,WNW,292,0.0,0.0,94,0.00,,,0.00,WUHU21636XXSP,2013-02-27 08:55:00,
2013-02-27 03:00:00,32.7,31.1,29.62,WNW,292,0.0,0.0,94,0.00,,,0.00,WUHU21636XXSP,2013-02-27 09:00:00,
2013-02-27 03:05:00,32.7,31.1,29.62,WNW,292,0.0,0.0,94,0.00,,,0.00,WUHU21636XXSP,2013-02-27 09:05:00,
2013-02-27 03:10:00,32.7,31.1,29.61,WNW,292,0.0,0.0,94,0.00,,,0.00,WUHU21636XXSP,2013-02-27 09:10:00,
2013-02-27 03:15:00,32.7,31.1,29.62,WNW,292,0.0,0.0,94,0.00,,,0.00,WUHU21636XXSP,2013-02-27 09:15:00,
2013-02-27 03:20:00,32.7,31.1,29.62,WNW,292,0.0,0.0,94,0.00,,,0.00,WUHU21636XXSP,2013-02-27 09:20:00,
2013-02-27 03:25:00,32.7,31.1,29.62,WNW,292,0.0,0.0,94,0.00,,,0.00,WUHU21636XXSP,2013-02-27 09:25:00,
2013-02-27 03:30:00,32.7,31.1,29.62,WNW,292,0.0,0.0,94,0.00,,,0.00,WUHU21636XXSP,2013-02-27 09:30:00,
2013-02-27 03:35:00,32.7,31.1,29.62,WNW,292,0.0,0.0,94,0.00,,,0.00,WUHU21636XXSP,2013-02-27 09:35:00,
2013-02-27 03:40:00,32.7,31.1,29.62,WNW,292,0.0,0.0,94,0.00,,,0.00,WUHU21636XXSP,2013-02-27 09:40:00,
2013-02-27 03:45:00,32.7,31.1,29.62,WNW,292,0.0,0.0,94,0.00,,,0.00,WUHU21636XXSP,2013-02-27 09:45:00,
2013-02-27 03:50:00,32.7,31.1,29.63,WNW,292,0.0,0.0,94,0.00,,,0.00,WUHU21636XXSP,2013-02-27 09:50:00,
2013-02-27 03:55:00,32.7,31.1,29.63,WNW,292,0.0,0.0,94,0.00,,,0.00,WUHU21636XXSP,2013-02-27 09:55:00,
2013-02-27 04:00:00,32.7,31.1,29.62,WNW,292,0.0,0.0,94,0.00,,,0.00,WUHU21636XXSP,2013-02-27 10:00:00,
2013-02-27 04:05:00,32.7,31.1,29.63,WNW,292,0.0,0.0,94,0.00,,,0.00,WUHU21636XXSP,2013-02-27 10:05:00,
2013-02-27 04:10:00,32.7,31.1,29.63,WNW,292,0.0,0.0,94,0.00,,,0.00,WUHU21636XXSP,2013-02-27 10:10:00,
2013-02-27 04:15:00,32.7,31.1,29.63,WNW,292,0.0,0.0,94,0.00,,,0.00,WUHU21636XXSP,2013-02-27 10:15:00,
2013-02-27 04:20:00,32.7,31.1,29.63,WNW,292,0.0,0.0,94,0.00,,,0.00,WUHU21636XXSP,2013-02-27 10:20:00,
2013-02-27 04:25:00,32.7,31.1,29.63,WNW,292,0.0,0.0,94,0.00,,,0.00,WUHU21636XXSP,2013-02-27 10:25:00,
2013-02-27 04:30:00,32.7,31.1,29.63,WNW,292,0.0,0.0,94,0.00,,,0.00,WUHU21636XXSP,2013-02-27 10:30:00,
2013-02-27 04:35:00,32.7,31.1,29.64,WNW,292,0.0,0.0,94,0.00,,,0.00,WUHU21636XXSP,2013-02-27 10:35:00,
2013-02-27 04:40:00,32.7,31.1,29.64,WNW,292,0.0,0.0,94,0.00,,,0.00,WUHU21636XXSP,2013-02-27 10:40:00,
2013-02-27 04:45:00,32.7,31.1,29.64,WNW,292,0.0,0.0,94,0.00,,,0.00,WUHU21636XXSP,2013-02-27 10:45:00,
2013-02-27 04:50:00,32.7,31.1,29.64,WNW,292,0.0,0.0,94,0.00,,,0.00,WUHU21636XXSP,2013-02-27 10:50:00,
2013-02-27 04:55:00,32.7,31.1,29.64,WNW,292,0.0,0.0,94,0.00,,,0.00,WUHU21636XXSP,2013-02-27 10:55:00,
2013-02-27 05:00:00,32.7,31.1,29.64,WNW,292,0.0,0.0,94,0.00,,,0.00,WUHU21636XXSP,2013-02-27 11:00:00,
2013-02-27 05:05:00,32.7,31.1,29.65,WNW,292,0.0,0.0,94,0.00,,,0.00,WUHU21636XXSP,2013-02-27 11:05:00,
2013-02-27 05:10:00,32.7,31.1,29.65,WNW,292,0.0,0.0,94,0.00,,,0.00,WUHU21636XXSP,2013-02-27 11:10:00,
2013-02-27 05:15:00,32.7,31.1,29.65,WNW,292,0.0,0.0,94,0.00,,,0.00,WUHU21636XXSP,2013-02-27 11:15:00,
2013-02-27 05:20:00,32.7,31.1,29.65,WNW,292,0.0,0.0,94,0.00,,,0.00,WUHU21636XXSP,2013-02-27 11:20:00,
2013-02-27 05:25:00,32.5,30.9,29.65,WNW,292,0.0,0.0,94,0.00,,,0.00,WUHU21636XXSP,2013-02-27 11:25:00,
2013-02-27 05:30:00,32.5,30.9,29.65,WNW,292,0.0,0.0,94,0.00,,,0.00,WUHU21636XXSP,2013-02-27 11:30:00,
2013-02-27 05:35:00,32.5,30.9,29.65,WNW,292,0.0,0.0,94,0.00,,,0.00,WUHU21636XXSP,2013-02-27 11:35:00,
2013-02-27 05:40:00,32.5,30.9,29.65,WNW,292,0.0,0.0,94,0.00,,,0.00,WUHU21636XXSP,2013-02-27 11:40:00,
2013-02-27 05:45:00,32.5,30.9,29.65,WNW,292,0.0,0.0,94,0.00,,,0.00,WUHU21636XXSP,2013-02-27 11:45:00,
2013-02-27 05:50:00,32.4,30.9,29.65,WNW,292,0.0,0.0,95,0.00,,,0.00,WUHU21636XXSP,2013-02-27 11:50:00,
2013-02-27 05:55:00,32.5,31.1,29.66,WNW,292,0.0,0.0,95,0.00,,,0.00,WUHU21636XXSP,2013-02-27 11:55:00,
2013-02-27 06:00:00,32.4,30.9,29.65,WNW,292,0.0,0.0,95,0.00,,,0.00,WUHU21636XXSP,2013-02-27 12:00:00,
2013-02-27 06:05:00,32.4,30.9,29.66,WNW,292,0.0,0.0,95,0.00,,,0.00,WUHU21636XXSP,2013-02-27 12:05:00,
2013-02-27 06:10:00,32.2,30.7,29.66,WNW,292,0.0,0.0,95,0.00,,,0.00,WUHU21636XXSP,2013-02-27 12:10:00,
2013-02-27 06:15:00,32.4,30.9,29.66,WNW,292,0.0,0.0,95,0.00,,,0.00,WUHU21636XXSP,2013-02-27 12:15:00,
2013-02-27 06:20:00,32.2,30.7,29.66,WNW,292,0.0,0.0,95,0.00,,,0.00,WUHU21636XXSP,2013-02-27 12:20:00,
2013-02-27 06:25:00,32.2,30.7,29.65,WNW,292,0.0,0.0,95,0.00,,,0.00,WUHU21636XXSP,2013-02-27 12:25:00,
2013-02-27 06:30:00,32.2,30.7,29.66,WNW,292,0.0,0.0,95,0.00,,,0.00,WUHU21636XXSP,2013-02-27 12:30:00,
2013-02-27 06:35:00,32.2,30.7,29.66,WNW,292,0.0,0.0,95,0.00,,,0.00,WUHU21636XXSP,2013-02-27 12:35:00,
2013-02-27 06:40:00,32.2,30.7,29.66,WNW,292,0.0,0.0,95,0.00,,,0.00,WUHU21636XXSP,2013-02-27 12:40:00,
2013-02-27 06:45:00,32.2,30.7,29.67,WNW,292,0.0,0.0,95,0.00,,,0.00,WUHU21636XXSP,2013-02-27 12:45:00,
2013-02-27 06:50:00,32.2,30.7,29.67,WNW,292,0.0,0.0,95,0.00,,,0.00,WUHU21636XXSP,2013-02-27 12:50:00,
2013-02-27 06:55:00,32.2,30.7,29.67,WNW,292,0.0,0.0,95,0.00,,,0.00,WUHU21636XXSP,2013-02-27 12:55:00,
2013-02-27 07:00:00,32.0,30.7,29.67,WNW,292,0.0,0.0,95,0.00,,,0.00,WUHU21636XXSP,2013-02-27 13:00:00,
2013-02-27 07:05:00,32.0,30.7,29.68,WNW,292,0.0,0.0,95,0.00,,,0.00,WUHU21636XXSP,2013-02-27 13:05:00,
2013-02-27 07:10:00,32.2,30.7,29.67,WNW,292,0.0,0.0,95,0.00,,,0.00,WUHU21636XXSP,2013-02-27 13:10:00,
2013-02-27 07:15:00,32.4,30.9,29.68,WNW,292,0.0,0.0,95,0.00,,,0.00,WUHU21636XXSP,2013-02-27 13:15:00,
2013-02-27 07:20:00,32.2,30.7,29.68,WNW,292,0.0,0.0,95,0.00,,,0.00,WUHU21636XXSP,2013-02-27 13:20:00,
2013-02-27 07:25:00,32.4,30.9,29.68,WNW,292,0.0,0.0,95,0.00,,,0.00,WUHU21636XXSP,2013-02-27 13:25:00,
2013-02-27 07:30:00,32.2,30.7,29.68,WNW,292,0.0,0.0,95,0.00,,,0.00,WUHU21636XXSP,2013-02-27 13:30:00,
2013-02-27 07:35:00,32.4,30.9,29.68,WNW,292,0.0,0.0,95,0.00,,,0.00,WUHU21636XXSP,2013-02-27 13:35:00,
2013-02-27 07:40:00,32.4,30.9,29.68,WNW,292,0.0,0.0,95,0.00,,,0.00,WUHU21636XXSP,2013-02-27 13:40:00,
2013-02-27 07:46:00,32.5,30.9,29.69,WNW,293,0.0,0.0,94,0.00,,,0.00,WUHU21636XXSP,2013-02-27 13:46:00,
2013-02-27 07:51:00,32.5,30.9,29.69,WNW,292,0.0,0.0,94,0.00,,,0.00,WUHU21636XXSP,2013-02-27 13:51:00,
2013-02-27 07:57:00,32.5,30.9,29.70,WNW,292,0.0,0.0,94,0.00,,,0.00,WUHU21636XXSP,2013-02-27 13:57:00,
2013-02-27 08:02:00,32.7,31.1,29.70,WNW,292,0.0,0.0,94,0.00,,,0.00,WUHU21636XXSP,2013-02-27 14:02:00,
2013-02-27 08:07:00,32.9,31.3,29.70,WNW,292,0.0,0.0,94,0.00,,,0.00,WUHU21636XXSP,2013-02-27 14:07:00,
2013-02-27 08:12:00,32.9,31.3,29.70,WNW,292,0.0,0.0,94,0.00,,,0.00,WUHU21636XXSP,2013-02-27 14:12:00,
2013-02-27 08:17:00,32.9,31.3,29.69,WNW,292,0.0,0.0,94,0.00,,,0.00,WUHU21636XXSP,2013-02-27 14:17:00,
2013-02-27 08:22:00,33.1,31.5,29.69,WNW,292,0.0,0.0,94,0.00,,,0.00,WUHU21636XXSP,2013-02-27 14:22:00,
2013-02-27 08:27:00,33.4,31.8,29.69,WNW,292,0.0,0.0,93,0.00,,,0.00,WUHU21636XXSP,2013-02-27 14:27:00,
2013-02-27 08:32:00,33.4,31.5,29.70,WNW,292,0.0,0.0,93,0.00,,,0.00,WUHU21636XXSP,2013-02-27 14:32:00,
2013-02-27 08:37:00,33.4,31.5,29.69,WNW,292,0.0,0.0,93,0.00,,,0.00,WUHU21636XXSP,2013-02-27 14:37:00,
2013-02-27 08:42:00,33.4,31.5,29.70,WNW,292,0.0,0.0,93,0.00,,,0.00,WUHU21636XXSP,2013-02-27 14:42:00,
2013-02-27 08:47:00,33.4,31.5,29.70,WNW,292,0.0,0.0,93,0.00,,,0.00,WUHU21636XXSP,2013-02-27 14:47:00,
2013-02-27 08:52:00,33.4,31.5,29.70,NW,315,0.0,0.0,92,0.02,,,0.02,WUHU21636XXSP,2013-02-27 14:52:00,
2013-02-27 08:57:00,33.6,31.5,29.70,West,270,0.0,0.0,92,0.02,,,0.02,WUHU21636XXSP,2013-02-27 14:57:00,
2013-02-27 09:02:00,33.6,31.5,29.70,WNW,292,0.0,0.0,92,0.02,,,0.02,WUHU21636XXSP,2013-02-27 15:02:00,
2013-02-27 09:07:00,34.0,31.8,29.70,WNW,292,0.0,0.0,92,0.02,,,0.02,WUHU21636XXSP,2013-02-27 15:07:00,
2013-02-27 09:12:00,34.5,32.4,29.70,West,270,0.0,0.0,92,0.02,,,0.02,WUHU21636XXSP,2013-02-27 15:12:00,
2013-02-27 09:17:00,34.5,32.0,29.70,NW,315,0.0,0.0,91,0.02,,,0.02,WUHU21636XXSP,2013-02-27 15:17:00,
2013-02-27 09:22:00,34.3,31.6,29.70,WNW,292,0.0,0.0,90,0.02,,,0.02,WUHU21636XXSP,2013-02-27 15:22:00,
2013-02-27 09:27:00,34.2,31.6,29.69,NNW,337,0.0,0.0,91,0.02,,,0.02,WUHU21636XXSP,2013-02-27 15:27:00,
2013-02-27 09:32:00,34.3,31.6,29.69,WNW,292,0.0,0.0,90,0.02,,,0.02,WUHU21636XXSP,2013-02-27 15:32:00,
2013-02-27 09:37:00,34.0,31.3,29.70,WNW,292,0.0,0.0,90,0.02,,,0.02,WUHU21636XXSP,2013-02-27 15:37:00,
2013-02-27 09:42:00,34.0,31.3,29.70,WNW,292,0.0,0.0,90,0.02,,,0.02,WUHU21636XXSP,2013-02-27 15:42:00,
2013-02-27 09:47:00,34.0,31.3,29.70,West,270,0.0,0.0,90,0.02,,,0.02,WUHU21636XXSP,2013-02-27 15:47:00,
2013-02-27 09:52:00,33.8,31.1,29.70,NW,315,0.0,0.0,90,0.02,,,0.02,WUHU21636XXSP,2013-02-27 15:52:00,
2013-02-27 09:57:00,34.0,31.3,29.70,NW,315,0.0,0.0,91,0.02,,,0.02,WUHU21636XXSP,2013-02-27 15:57:00,
2013-02-27 10:02:00,34.2,31.6,29.70,West,270,0.0,0.0,90,0.00,,,0.02,WUHU21636XXSP,2013-02-27 16:02:00,
2013-02-27 10:07:00,34.2,31.6,29.70,WNW,292,0.0,0.0,91,0.00,,,0.02,WUHU21636XXSP,2013-02-27 16:07:00,
2013-02-27 10:12:00,34.3,31.6,29.70,WNW,292,0.0,0.0,90,0.00,,,0.02,WUHU21636XXSP,2013-02-27 16:12:00,
2013-02-27 10:17:00,34.3,31.8,29.70,West,270,0.0,0.0,91,0.00,,,0.02,WUHU21636XXSP,2013-02-27 16:17:00,
2013-02-27 10:22:00,34.2,31.5,29.70,WNW,292,0.0,0.0,90,0.00,,,0.02,WUHU21636XXSP,2013-02-27 16:22:00,
2013-02-27 10:27:00,34.0,31.5,29.70,WNW,292,0.0,0.0,91,0.00,,,0.02,WUHU21636XXSP,2013-02-27 16:27:00,
2013-02-27 10:32:00,34.2,31.6,29.70,WNW,292,0.0,0.0,90,0.00,,,0.02,WUHU21636XXSP,2013-02-27 16:32:00,
2013-02-27 10:37:00,34.3,31.6,29.70,West,270,0.0,0.0,90,0.00,,,0.02,WUHU21636XXSP,2013-02-27 16:37:00,
2013-02-27 10:42:00,34.9,32.2,29.70,West,270,0.0,0.0,90,0.00,,,0.02,WUHU21636XXSP,2013-02-27 16:42:00,
2013-02-27 10:47:00,34.7,31.6,29.70,NW,315,0.0,0.0,89,0.00,,,0.02,WUHU21636XXSP,2013-02-27 16:47:00,
2013-02-27 10:52:00,34.9,32.2,29.70,NW,315,0.0,0.0,90,0.00,,,0.02,WUHU21636XXSP,2013-02-27 16:52:00,
2013-02-27 10:57:00,34.5,31.5,29.71,WNW,292,0.0,0.0,90,0.00,,,0.02,WUHU21636XXSP,2013-02-27 16:57:00,
2013-02-27 11:02:00,34.5,31.5,29.70,West,270,0.0,0.0,89,0.00,,,0.02,WUHU21636XXSP,2013-02-27 17:02:00,
2013-02-27 11:07:00,34.5,31.5,29.71,WNW,292,0.0,0.0,89,0.00,,,0.02,WUHU21636XXSP,2013-02-27 17:07:00,
2013-02-27 11:12:00,34.5,31.5,29.70,West,270,0.0,0.0,89,0.00,,,0.02,WUHU21636XXSP,2013-02-27 17:12:00,
2013-02-27 11:17:00,34.5,31.5,29.71,West,270,0.0,0.0,89,0.00,,,0.02,WUHU21636XXSP,2013-02-27 17:17:00,
2013-02-27 11:22:00,34.7,31.3,29.71,West,270,0.0,0.0,88,0.00,,,0.02,WUHU21636XXSP,2013-02-27 17:22:00,
2013-02-27 11:27:00,34.7,31.6,29.71,WSW,247,0.0,1.5,89,0.00,,,0.02,WUHU21636XXSP,2013-02-27 17:27:00,
2013-02-27 11:32:00,34.9,31.5,29.70,NW,315,5.3,10.0,88,0.00,,,0.02,WUHU21636XXSP,2013-02-27 17:32:00,
2013-02-27 11:37:00,34.5,31.5,29.71,WSW,247,3.3,10.0,89,0.02,,,0.04,WUHU21636XXSP,2013-02-27 17:37:00,
2013-02-27 11:42:00,34.5,31.5,29.71,West,270,0.8,9.8,89,0.02,,,0.04,WUHU21636XXSP,2013-02-27 17:42:00,
2013-02-27 11:47:00,34.7,31.6,29.71,WSW,247,4.2,7.6,89,0.02,,,0.04,WUHU21636XXSP,2013-02-27 17:47:00,
2013-02-27 11:52:00,34.3,31.3,29.71,West,270,1.5,7.1,89,0.02,,,0.04,WUHU21636XXSP,2013-02-27 17:52:00,
2013-02-27 11:57:00,34.7,32.0,29.71,WNW,292,7.1,8.0,90,0.02,,,0.04,WUHU21636XXSP,2013-02-27 17:57:00,
2013-02-27 12:02:00,34.5,31.8,29.71,SW,225,2.0,10.7,90,0.02,,,0.04,WUHU21636XXSP,2013-02-27 18:02:00,
2013-02-27 12:07:00,34.5,31.5,29.70,West,270,0.6,10.7,89,0.02,,,0.04,WUHU21636XXSP,2013-02-27 18:07:00,
2013-02-27 12:12:00,34.9,32.2,29.70,West,270,0.8,10.0,90,0.02,,,0.04,WUHU21636XXSP,2013-02-27 18:12:00,
2013-02-27 12:17:00,34.5,31.5,29.71,West,270,1.7,1.7,89,0.02,,,0.04,WUHU21636XXSP,2013-02-27 18:17:00,
2013-02-27 12:22:00,34.5,31.5,29.71,WSW,247,2.4,3.5,90,0.02,,,0.04,WUHU21636XXSP,2013-02-27 18:22:00,
2013-02-27 12:27:00,34.5,31.5,29.71,West,270,4.4,6.4,89,0.02,,,0.04,WUHU21636XXSP,2013-02-27 18:27:00,
2013-02-27 12:32:00,34.5,31.5,29.71,WNW,292,4.4,8.7,89,0.02,,,0.04,WUHU21636XXSP,2013-02-27 18:32:00,
2013-02-27 12:37:00,34.5,31.8,29.71,WNW,292,4.2,8.7,90,0.02,,,0.04,WUHU21636XXSP,2013-02-27 18:37:00,
2013-02-27 12:42:00,34.0,31.3,29.71,WNW,292,4.2,11.1,90,0.02,,,0.04,WUHU21636XXSP,2013-02-27 18:42:00,
2013-02-27 12:47:00,34.2,31.5,29.71,West,270,3.8,11.1,90,0.02,,,0.04,WUHU21636XXSP,2013-02-27 18:47:00,
2013-02-27 12:52:00,34.3,31.6,29.71,West,270,3.8,8.5,90,0.02,,,0.04,WUHU21636XXSP,2013-02-27 18:52:00,
2013-02-27 12:57:00,34.3,31.6,29.71,NW,315,4.4,11.4,90,0.02,,,0.04,WUHU21636XXSP,2013-02-27 18:57:00,
2013-02-27 13:02:00,34.2,31.6,29.71,West,270,4.2,11.4,91,0.00,,,0.04,WUHU21636XXSP,2013-02-27 19:02:00,
2013-02-27 13:07:00,34.2,31.6,29.71,WNW,292,2.4,11.6,91,0.00,,,0.04,WUHU21636XXSP,2013-02-27 19:07:00,
2013-02-27 13:12:00,34.0,31.3,29.71,NW,315,8.2,11.6,90,0.00,,,0.04,WUHU21636XXSP,2013-02-27 19:12:00,
2013-02-27 13:17:00,34.2,31.6,29.71,NW,315,6.9,10.9,91,0.00,,,0.04,WUHU21636XXSP,2013-02-27 19:17:00,
2013-02-27 13:22:00,34.3,31.8,29.71,WNW,292,0.8,8.0,91,0.00,,,0.04,WUHU21636XXSP,2013-02-27 19:22:00,
2013-02-27 13:27:00,34.2,31.6,29.71,West,270,2.2,7.1,91,0.00,,,0.04,WUHU21636XXSP,2013-02-27 19:27:00,
2013-02-27 13:32:00,34.2,31.6,29.71,West,270,2.4,13.1,91,0.00,,,0.04,WUHU21636XXSP,2013-02-27 19:32:00,
2013-02-27 13:37:00,34.0,31.5,29.71,NW,315,8.7,14.5,91,0.00,,,0.04,WUHU21636XXSP,2013-02-27 19:37:00,
2013-02-27 13:42:00,34.0,31.5,29.71,WNW,292,1.5,14.5,91,0.00,,,0.04,WUHU21636XXSP,2013-02-27 19:42:00,
2013-02-27 13:47:00,34.0,31.5,29.71,WNW,292,1.1,8.7,92,0.00,,,0.04,WUHU21636XXSP,2013-02-27 19:47:00,
2013-02-27 13:52:00,34.2,31.6,29.71,West,270,5.8,10.7,91,0.00,,,0.04,WUHU21636XXSP,2013-02-27 19:52:00,
2013-02-27 13:57:00,34.2,31.6,29.72,West,270,2.9,10.7,91,0.00,,,0.04,WUHU21636XXSP,2013-02-27 19:57:00,
2013-02-27 14:02:00,34.3,31.8,29.72,West,270,1.7,6.7,91,0.00,,,0.04,WUHU21636XXSP,2013-02-27 20:02:00,
2013-02-27 14:07:00,34.3,31.8,29.72,West,270,3.8,7.1,91,0.00,,,0.04,WUHU21636XXSP,2013-02-27 20:07:00,
2013-02-27 14:12:00,34.2,31.6,29.72,West,270,3.1,7.1,91,0.00,,,0.04,WUHU21636XXSP,2013-02-27 20:12:00,
2013-02-27 14:18:00,34.3,31.8,29.72,West,270,1.1,6.2,91,0.00,,,0.04,WUHU21636XXSP,2013-02-27 20:18:00,
2013-02-27 14:23:00,34.0,31.5,29.72,West,270,2.9,10.2,91,0.00,,,0.04,WUHU21636XXSP,2013-02-27 20:23:00,
2013-02-27 14:28:00,34.0,31.5,29.72,West,270,4.9,10.2,91,0.00,,,0.04,WUHU21636XXSP,2013-02-27 20:28:00,
2013-02-27 14:32:00,34.0,31.5,29.73,West,270,3.8,8.2,91,0.00,,,0.04,WUHU21636XXSP,2013-02-27 20:32:00,
2013-02-27 14:37:00,34.0,31.5,29.72,West,270,2.2,8.2,92,0.00,,,0.04,WUHU21636XXSP,2013-02-27 20:37:00,
2013-02-27 14:42:00,34.0,31.8,29.72,West,270,3.8,5.1,92,0.00,,,0.04,WUHU21636XXSP,2013-02-27 20:42:00,
2013-02-27 14:47:00,34.0,31.8,29.73,West,270,3.8,7.1,91,0.00,,,0.04,WUHU21636XXSP,2013-02-27 20:47:00,
2013-02-27 14:52:00,34.2,31.6,29.73,West,270,3.3,7.1,91,0.00,,,0.04,WUHU21636XXSP,2013-02-27 20:52:00,
2013-02-27 14:57:00,34.5,32.4,29.73,West,270,2.0,6.9,92,0.00,,,0.04,WUHU21636XXSP,2013-02-27 20:57:00,
2013-02-27 15:02:00,34.7,32.2,29.73,WNW,292,4.9,6.7,91,0.00,,,0.04,WUHU21636XXSP,2013-02-27 21:02:00,
2013-02-27 15:07:00,34.5,32.0,29.73,WNW,292,5.1,8.5,91,0.00,,,0.04,WUHU21636XXSP,2013-02-27 21:07:00,
2013-02-27 15:12:00,34.3,31.6,29.74,NNW,337,7.8,18.7,90,0.00,,,0.04,WUHU21636XXSP,2013-02-27 21:12:00,
2013-02-27 15:17:00,34.0,31.5,29.74,NW,315,4.2,18.7,91,0.00,,,0.04,WUHU21636XXSP,2013-02-27 21:17:00,
2013-02-27 15:23:00,34.0,31.5,29.74,WNW,292,5.1,12.7,91,0.00,,,0.04,WUHU21636XXSP,2013-02-27 21:23:00,
2013-02-27 15:28:00,33.6,31.5,29.74,WNW,292,8.0,15.4,92,0.00,,,0.04,WUHU21636XXSP,2013-02-27 21:28:00,
2013-02-27 15:33:00,33.6,31.5,29.74,WNW,292,7.3,11.6,92,0.00,,,0.04,WUHU21636XXSP,2013-02-27 21:33:00,
2013-02-27 15:38:00,33.6,31.6,29.74,WNW,292,8.0,16.5,93,0.00,,,0.04,WUHU21636XXSP,2013-02-27 21:38:00,
2013-02-27 15:43:00,34.0,31.8,29.75,WNW,292,9.6,16.5,92,0.00,,,0.04,WUHU21636XXSP,2013-02-27 21:43:00,
2013-02-27 15:48:00,33.6,31.5,29.75,WNW,292,6.4,13.8,92,0.00,,,0.04,WUHU21636XXSP,2013-02-27 21:48:00,
2013-02-27 15:53:00,33.6,31.5,29.75,WNW,292,4.2,13.4,92,0.00,,,0.04,WUHU21636XXSP,2013-02-27 21:53:00,
2013-02-27 15:58:00,33.6,31.6,29.75,WNW,292,5.5,13.4,93,0.00,,,0.04,WUHU21636XXSP,2013-02-27 21:58:00,
2013-02-27 16:03:00,33.8,31.8,29.75,WNW,292,3.5,12.0,93,0.00,,,0.04,WUHU21636XXSP,2013-02-27 22:03:00,
2013-02-27 16:08:00,34.0,32.0,29.76,WNW,292,3.8,9.8,92,0.00,,,0.04,WUHU21636XXSP,2013-02-27 22:08:00,
2013-02-27 16:13:00,34.0,31.8,29.76,WNW,292,7.1,10.7,92,0.00,,,0.04,WUHU21636XXSP,2013-02-27 22:13:00,
2013-02-27 16:18:00,34.0,31.8,29.75,WNW,292,4.9,10.7,92,0.02,,,0.06,WUHU21636XXSP,2013-02-27 22:18:00,
2013-02-27 16:23:00,34.0,31.8,29.75,WNW,292,5.5,9.8,92,0.02,,,0.06,WUHU21636XXSP,2013-02-27 22:23:00,
2013-02-27 16:28:00,34.0,31.8,29.76,WNW,292,2.9,8.5,92,0.02,,,0.06,WUHU21636XXSP,2013-02-27 22:28:00,
2013-02-27 16:33:00,33.8,31.6,29.76,WNW,292,5.3,10.7,92,0.02,,,0.06,WUHU21636XXSP,2013-02-27 22:33:00,
2013-02-27 16:38:00,33.8,31.6,29.76,WNW,292,1.1,10.7,92,0.02,,,0.06,WUHU21636XXSP,2013-02-27 22:38:00,
2013-02-27 16:43:00,33.4,30.9,29.76,WNW,292,12.5,18.3,91,0.02,,,0.06,WUHU21636XXSP,2013-02-27 22:43:00,
2013-02-27 16:48:00,33.3,31.1,29.76,WNW,292,8.7,18.3,92,0.02,,,0.06,WUHU21636XXSP,2013-02-27 22:48:00,
2013-02-27 16:53:00,33.1,30.9,29.76,WNW,292,9.8,17.2,92,0.02,,,0.06,WUHU21636XXSP,2013-02-27 22:53:00,
2013-02-27 16:58:00,32.7,30.7,29.77,WNW,292,5.8,17.2,93,0.02,,,0.06,WUHU21636XXSP,2013-02-27 22:58:00,
2013-02-27 17:03:00,32.7,30.7,29.77,WNW,292,5.8,14.5,93,0.02,,,0.06,WUHU21636XXSP,2013-02-27 23:03:00,
2013-02-27 17:08:00,32.7,30.7,29.77,WNW,292,2.2,11.6,93,0.02,,,0.06,WUHU21636XXSP,2013-02-27 23:08:00,
2013-02-27 17:13:00,32.5,30.6,29.78,WNW,292,0.8,13.4,93,0.02,,,0.06,WUHU21636XXSP,2013-02-27 23:13:00,
2013-02-27 17:18:00,32.7,30.7,29.78,WNW,292,2.2,13.4,93,0.02,,,0.06,WUHU21636XXSP,2013-02-27 23:18:00,
2013-02-27 17:23:00,32.5,30.6,29.78,WNW,292,5.8,8.9,93,0.02,,,0.06,WUHU21636XXSP,2013-02-27 23:23:00,
2013-02-27 17:28:00,32.5,30.6,29.78,WNW,292,3.8,8.2,93,0.02,,,0.06,WUHU21636XXSP,2013-02-27 23:28:00,
2013-02-27 17:33:00,32.5,30.6,29.78,WNW,292,6.9,15.6,93,0.02,,,0.06,WUHU21636XXSP,2013-02-27 23:33:00,
2013-02-27 17:38:00,32.5,30.6,29.78,WNW,292,5.8,15.6,93,0.02,,,0.06,WUHU21636XXSP,2013-02-27 23:38:00,
2013-02-27 17:43:00,32.5,30.6,29.78,WNW,292,3.3,14.5,93,0.02,,,0.06,WUHU21636XXSP,2013-02-27 23:43:00,
2013-02-27 17:48:00,32.5,30.6,29.79,WNW,292,2.4,14.5,93,0.02,,,0.06,WUHU21636XXSP,2013-02-27 23:48:00,
2013-02-27 17:53:00,32.4,30.6,29.79,WNW,292,2.0,9.1,93,0.02,,,0.06,WUHU21636XXSP,2013-02-27 23:53:00,
2013-02-27 17:58:00,32.4,30.6,29.78,WNW,292,3.8,12.0,93,0.02,,,0.06,WUHU21636XXSP,2013-02-27 23:58:00,
2013-02-27 18:03:00,32.4,30.6,29.78,WNW,292,3.1,12.0,93,0.00,,,0.06,WUHU21636XXSP,2013-02-28 00:03:00,
2013-02-27 18:08:00,32.4,30.6,29.78,WNW,292,0.8,8.5,93,0.00,,,0.06,WUHU21636XXSP,2013-02-28 00:08:00,
2013-02-27 18:13:00,32.4,30.6,29.78,WNW,292,2.4,4.2,93,0.00,,,0.06,WUHU21636XXSP,2013-02-28 00:13:00,
2013-02-27 18:18:00,32.4,30.6,29.79,WNW,292,4.2,4.2,93,0.00,,,0.06,WUHU21636XXSP,2013-02-28 00:18:00,
2013-02-27 18:23:00,32.4,30.6,29.79,WNW,292,4.0,4.9,93,0.00,,,0.06,WUHU21636XXSP,2013-02-28 00:23:00,
2013-02-27 18:28:00,32.4,30.7,29.79,WNW,292,0.0,4.9,94,0.00,,,0.06,WUHU21636XXSP,2013-02-28 00:28:00,
2013-02-27 18:33:00,32.5,30.6,29.79,WNW,292,0.0,5.1,93,0.00,,,0.06,WUHU21636XXSP,2013-02-28 00:33:00,
2013-02-27 18:38:00,32.5,30.9,29.80,WNW,292,2.2,5.1,94,0.00,,,0.06,WUHU21636XXSP,2013-02-28 00:38:00,
2013-02-27 18:43:00,32.4,30.7,29.80,WNW,292,0.4,8.9,94,0.00,,,0.06,WUHU21636XXSP,2013-02-28 00:43:00,
2013-02-27 18:48:00,32.4,30.7,29.80,WNW,292,5.3,8.9,94,0.00,,,0.06,WUHU21636XXSP,2013-02-28 00:48:00,
2013-02-27 18:53:00,32.4,30.7,29.80,WNW,292,4.6,8.5,94,0.00,,,0.06,WUHU21636XXSP,2013-02-28 00:53:00,
2013-02-27 18:58:00,32.4,30.7,29.80,WNW,292,4.0,6.9,94,0.00,,,0.06,WUHU21636XXSP,2013-02-28 00:58:00,
2013-02-27 19:03:00,32.4,30.7,29.80,WNW,292,6.2,7.1,94,0.00,,,0.06,WUHU21636XXSP,2013-02-28 01:03:00,
2013-02-27 19:08:00,32.5,30.9,29.80,WNW,292,2.4,12.7,94,0.00,,,0.06,WUHU21636XXSP,2013-02-28 01:08:00,
2013-02-27 19:13:00,32.5,30.9,29.80,WNW,292,1.1,12.7,94,0.00,,,0.06,WUHU21636XXSP,2013-02-28 01:13:00,
2013-02-27 19:18:00,32.5,30.9,29.81,WNW,292,2.0,9.3,94,0.00,,,0.06,WUHU21636XXSP,2013-02-28 01:18:00,
2013-02-27 19:23:00,32.5,30.9,29.81,WNW,292,2.6,9.3,94,0.00,,,0.06,WUHU21636XXSP,2013-02-28 01:23:00,
2013-02-27 19:28:00,32.5,30.9,29.81,WNW,292,3.8,9.1,94,0.00,,,0.06,WUHU21636XXSP,2013-02-28 01:28:00,
2013-02-27 19:33:00,32.5,30.9,29.81,WNW,292,1.1,13.6,94,0.00,,,0.06,WUHU21636XXSP,2013-02-28 01:33:00,
2013-02-27 19:38:00,32.5,30.9,29.80,WNW,292,1.7,13.6,94,0.00,,,0.06,WUHU21636XXSP,2013-02-28 01:38:00,
2013-02-27 19:43:00,32.5,30.9,29.81,WNW,292,2.4,3.3,94,0.00,,,0.06,WUHU21636XXSP,2013-02-28 01:43:00,
2013-02-27 19:48:00,32.5,30.6,29.81,WNW,292,0.0,10.0,93,0.00,,,0.06,WUHU21636XXSP,2013-02-28 01:48:00,
2013-02-27 19:54:00,32.5,30.6,29.81,WNW,292,4.0,8.2,93,0.00,,,0.06,WUHU21636XXSP,2013-02-28 01:54:00,
2013-02-27 19:59:00,32.5,30.6,29.81,WNW,292,6.0,10.9,93,0.00,,,0.06,WUHU21636XXSP,2013-02-28 01:59:00,
2013-02-27 20:04:00,32.5,30.6,29.81,WNW,292,1.5,10.9,93,0.00,,,0.06,WUHU21636XXSP,2013-02-28 02:04:00,
2013-02-27 20:09:00,32.5,30.6,29.81,WNW,292,6.4,9.1,93,0.00,,,0.06,WUHU21636XXSP,2013-02-28 02:09:00,
2013-02-27 20:14:00,32.5,30.6,29.81,WNW,292,4.9,9.8,93,0.00,,,0.06,WUHU21636XXSP,2013-02-28 02:14:00,
2013-02-27 20:19:00,32.5,30.6,29.81,WNW,292,3.3,9.8,93,0.00,,,0.06,WUHU21636XXSP,2013-02-28 02:19:00,
2013-02-27 20:24:00,32.5,30.6,29.81,WNW,292,2.6,8.0,93,0.00,,,0.06,WUHU21636XXSP,2013-02-28 02:24:00,
2013-02-27 20:29:00,32.5,30.6,29.81,WNW,292,0.8,4.0,92,0.00,,,0.06,WUHU21636XXSP,2013-02-28 02:29:00,
2013-02-27 20:34:00,32.5,30.4,29.81,WNW,292,4.2,6.4,92,0.00,,,0.06,WUHU21636XXSP,2013-02-28 02:34:00,
2013-02-27 20:39:00,32.5,30.4,29.81,WNW,292,4.2,6.4,93,0.00,,,0.06,WUHU21636XXSP,2013-02-28 02:39:00,
2013-02-27 20:44:00,32.5,30.4,29.81,WNW,292,2.6,7.1,92,0.00,,,0.06,WUHU21636XXSP,2013-02-28 02:44:00,
2013-02-27 20:49:00,32.5,30.4,29.81,WNW,292,4.6,7.1,92,0.00,,,0.06,WUHU21636XXSP,2013-02-28 02:49:00,
2013-02-27 20:54:00,32.5,30.4,29.81,WNW,292,3.1,7.6,92,0.00,,,0.06,WUHU21636XXSP,2013-02-28 02:54:00,
2013-02-27 20:59:00,32.5,30.4,29.81,WNW,292,6.7,8.2,92,0.00,,,0.06,WUHU21636XXSP,2013-02-28 02:59:00,
2013-02-27 21:04:00,32.5,30.4,29.81,WNW,292,2.9,8.2,92,0.00,,,0.06,WUHU21636XXSP,2013-02-28 03:04:00,
2013-02-27 21:09:00,32.5,30.4,29.81,WNW,292,0.8,6.9,92,0.00,,,0.06,WUHU21636XXSP,2013-02-28 03:09:00,
2013-02-27 21:14:00,32.5,30.4,29.81,WNW,292,2.4,9.3,92,0.00,,,0.06,WUHU21636XXSP,2013-02-28 03:14:00,
2013-02-27 21:19:00,32.5,30.4,29.82,WNW,292,5.1,9.3,92,0.00,,,0.06,WUHU21636XXSP,2013-02-28 03:19:00,
2013-02-27 21:24:00,32.5,30.4,29.82,WNW,292,2.2,8.9,92,0.00,,,0.06,WUHU21636XXSP,2013-02-28 03:24:00,
2013-02-27 21:29:00,32.5,30.4,29.81,WNW,292,5.8,8.9,92,0.00,,,0.06,WUHU21636XXSP,2013-02-28 03:29:00,
2013-02-27 21:34:00,32.5,30.4,29.82,WNW,292,2.9,6.7,92,0.00,,,0.06,WUHU21636XXSP,2013-02-28 03:34:00,
2013-02-27 21:39:00,32.5,30.4,29.81,WNW,292,6.2,7.8,92,0.00,,,0.06,WUHU21636XXSP,2013-02-28 03:39:00,
2013-02-27 21:44:00,32.5,30.4,29.81,WNW,292,2.2,7.8,92,0.00,,,0.06,WUHU21636XXSP,2013-02-28 03:44:00,
2013-02-27 21:49:00,32.5,30.4,29.82,WNW,292,6.0,7.8,92,0.00,,,0.06,WUHU21636XXSP,2013-02-28 03:49:00,
2013-02-27 21:54:00,32.7,30.6,29.82,WNW,292,2.0,7.8,92,0.00,,,0.06,WUHU21636XXSP,2013-02-28 03:54:00,
2013-02-27 21:59:00,32.5,30.4,29.82,WNW,292,2.0,7.1,92,0.00,,,0.06,WUHU21636XXSP,2013-02-28 03:59:00,
2013-02-27 22:04:00,32.5,30.4,29.82,WNW,292,2.0,7.1,92,0.00,,,0.06,WUHU21636XXSP,2013-02-28 04:04:00,
2013-02-27 22:09:00,32.5,30.4,29.82,WNW,292,2.2,7.1,92,0.00,,,0.06,WUHU21636XXSP,2013-02-28 04:09:00,
2013-02-27 22:14:00,32.5,30.4,29.82,WNW,292,4.2,7.3,92,0.00,,,0.06,WUHU21636XXSP,2013-02-28 04:14:00,
2013-02-27 22:19:00,32.5,30.4,29.82,WNW,292,3.3,7.3,92,0.00,,,0.06,WUHU21636XXSP,2013-02-28 04:19:00,
2013-02-27 22:24:00,32.5,30.4,29.82,WNW,292,1.1,7.1,92,0.00,,,0.06,WUHU21636XXSP,2013-02-28 04:24:00,
2013-02-27 22:29:00,32.5,30.4,29.83,WNW,292,3.3,8.2,92,0.00,,,0.06,WUHU21636XXSP,2013-02-28 04:29:00,
2013-02-27 22:34:00,32.7,30.6,29.82,WNW,292,0.6,8.2,92,0.00,,,0.06,WUHU21636XXSP,2013-02-28 04:34:00,
2013-02-27 22:39:00,32.5,30.4,29.83,WNW,292,5.3,7.6,92,0.00,,,0.06,WUHU21636XXSP,2013-02-28 04:39:00,
2013-02-27 22:44:00,32.5,30.4,29.82,WNW,292,0.0,7.6,92,0.00,,,0.06,WUHU21636XXSP,2013-02-28 04:44:00,
2013-02-27 22:49:00,32.5,30.4,29.82,WNW,292,0.0,5.3,92,0.00,,,0.06,WUHU21636XXSP,2013-02-28 04:49:00,
2013-02-27 22:54:00,32.5,30.4,29.82,WNW,292,2.9,8.7,92,0.00,,,0.06,WUHU21636XXSP,2013-02-28 04:54:00,
2013-02-27 22:59:00,32.5,30.4,29.82,WNW,292,1.3,8.7,92,0.00,,,0.06,WUHU21636XXSP,2013-02-28 04:59:00,
2013-02-27 23:00:00,32.5,30.4,29.82,WNW,292,2.6,8.7,92,0.00,,,0.06,WUHU21636XXSP,2013-02-28 05:00:00,
2013-02-27 23:05:00,32.5,30.4,29.82,WNW,292,0.4,7.6,92,0.00,,,0.06,WUHU21636XXSP,2013-02-28 05:05:00,
2013-02-27 23:10:00,32.5,30.4,29.82,WNW,292,4.4,4.4,92,0.00,,,0.06,WUHU21636XXSP,2013-02-28 05:10:00,
2013-02-27 23:15:00,32.5,30.4,29.82,WNW,292,1.5,4.4,92,0.00,,,0.06,WUHU21636XXSP,2013-02-28 05:15:00,
2013-02-27 23:20:00,32.5,30.4,29.82,WNW,292,0.6,4.4,92,0.00,,,0.06,WUHU21636XXSP,2013-02-28 05:20:00,
2013-02-27 23:25:00,32.5,30.4,29.82,WNW,292,1.7,3.1,92,0.00,,,0.06,WUHU21636XXSP,2013-02-28 05:25:00,
2013-02-27 23:30:00,32.5,30.4,29.82,WNW,292,0.6,3.1,92,0.00,,,0.06,WUHU21636XXSP,2013-02-28 05:30:00,
2013-02-27 23:35:00,32.5,30.6,29.82,WNW,292,2.6,4.2,93,0.00,,,0.06,WUHU21636XXSP,2013-02-28 05:35:00,
2013-02-27 23:40:00,32.5,30.6,29.82,WNW,292,2.2,6.7,93,0.00,,,0.06,WUHU21636XXSP,2013-02-28 05:40:00,
2013-02-27 23:45:00,32.5,30.4,29.83,WNW,292,3.5,9.6,92,0.00,,,0.06,WUHU21636XXSP,2013-02-28 05:45:00,
2013-02-27 23:50:00,32.5,30.4,29.83,WNW,292,3.1,9.6,92,0.00,,,0.06,WUHU21636XXSP,2013-02-28 05:50:00,
2013-02-27 23:55:00,32.7,30.7,29.83,WNW,292,2.2,6.9,93,0.00,,,0.06,WUHU21636XXSP,2013-02-28 05:55:00,